Avon, Minnesota
Current Conditions -  °F | °C
As of 10:53 AM on Sunday 21 Dec 2014 (Local Time) from KSTC Reporting Station
Haze Haze  
Wind Chill: 26°   Ceiling: 300
Heat Index: 35°   Visibility: 0.75mi
Dew Point: 32°   Wind: 14mph
Humidity: 89%   Direction: 140°SE
Pressure: 29.8"   Gusts: NA
Location:  45.61°N, 94.45°W
Report Text: KSTC 211653Z 14012KT 3/4SM BR OVC003 02/00 A2980 RMK AO2 SLP110 T00170000
Loading
Personal Weather Stations






























Interactive Weather Map New forecast layout! Learn more

10-Day Weather Forecast

Advertisements
Track Severe Weather on mobile